sensor_id;sensor_type;location;lat;lon;timestamp;temperature;humidity
15554;DHT22;7878;44.632;10.942;2024-03-22T00:01:47;16.00;99.90
15554;DHT22;7878;44.632;10.942;2024-03-22T00:04:13;16.00;99.90
15554;DHT22;7878;44.632;10.942;2024-03-22T00:06:41;16.00;99.90
15554;DHT22;7878;44.632;10.942;2024-03-22T00:09:07;16.00;99.90
15554;DHT22;7878;44.632;10.942;2024-03-22T00:11:33;16.00;99.90
15554;DHT22;7878;44.632;10.942;2024-03-22T00:13:58;16.00;99.90
15554;DHT22;7878;44.632;10.942;2024-03-22T00:16:24;16.00;99.90
15554;DHT22;7878;44.632;10.942;2024-03-22T00:18:50;16.00;99.90
15554;DHT22;7878;44.632;10.942;2024-03-22T00:21:16;16.00;99.90
15554;DHT22;7878;44.632;10.942;2024-03-22T00:23:43;16.00;99.90
15554;DHT22;7878;44.632;10.942;2024-03-22T00:26:09;16.00;99.90
15554;DHT22;7878;44.632;10.942;2024-03-22T00:28:34;16.10;99.90
15554;DHT22;7878;44.632;10.942;2024-03-22T00:31:00;16.00;99.90
15554;DHT22;7878;44.632;10.942;2024-03-22T00:33:25;16.00;99.90
15554;DHT22;7878;44.632;10.942;2024-03-22T00:35:51;16.00;99.90
15554;DHT22;7878;44.632;10.942;2024-03-22T00:38:17;16.00;99.90
15554;DHT22;7878;44.632;10.942;2024-03-22T00:40:42;15.90;99.90
15554;DHT22;7878;44.632;10.942;2024-03-22T00:43:08;15.80;99.90
15554;DHT22;7878;44.632;10.942;2024-03-22T00:45:33;15.80;99.90
15554;DHT22;7878;44.632;10.942;2024-03-22T00:47:59;15.80;99.90
15554;DHT22;7878;44.632;10.942;2024-03-22T00:50:25;15.80;99.90
15554;DHT22;7878;44.632;10.942;2024-03-22T00:52:51;15.80;99.90
15554;DHT22;7878;44.632;10.942;2024-03-22T00:55:18;15.90;99.90
15554;DHT22;7878;44.632;10.942;2024-03-22T00:57:44;15.80;99.90
15554;DHT22;7878;44.632;10.942;2024-03-22T01:00:10;15.80;99.90
15554;DHT22;7878;44.632;10.942;2024-03-22T01:02:35;15.80;99.90
15554;DHT22;7878;44.632;10.942;2024-03-22T01:05:01;15.80;99.90
15554;DHT22;7878;44.632;10.942;2024-03-22T01:07:26;15.70;99.90
15554;DHT22;7878;44.632;10.942;2024-03-22T01:09:52;15.60;99.90
15554;DHT22;7878;44.632;10.942;2024-03-22T01:12:18;15.60;99.90
15554;DHT22;7878;44.632;10.942;2024-03-22T01:14:43;15.60;99.90
15554;DHT22;7878;44.632;10.942;2024-03-22T01:17:09;15.60;99.90
15554;DHT22;7878;44.632;10.942;2024-03-22T01:19:35;15.60;99.90
15554;DHT22;7878;44.632;10.942;2024-03-22T01:22:01;15.50;99.90
15554;DHT22;7878;44.632;10.942;2024-03-22T01:24:27;15.50;99.90
15554;DHT22;7878;44.632;10.942;2024-03-22T01:26:53;15.50;99.90
15554;DHT22;7878;44.632;10.942;2024-03-22T01:29:19;15.50;99.90
15554;DHT22;7878;44.632;10.942;2024-03-22T01:31:45;15.50;99.90
15554;DHT22;7878;44.632;10.942;2024-03-22T01:34:10;15.40;99.90
15554;DHT22;7878;44.632;10.942;2024-03-22T01:36:36;15.40;99.90
15554;DHT22;7878;44.632;10.942;2024-03-22T01:39:01;15.40;99.90
15554;DHT22;7878;44.632;10.942;2024-03-22T01:41:27;15.40;99.90
15554;DHT22;7878;44.632;10.942;2024-03-22T01:43:53;15.40;99.90
15554;DHT22;7878;44.632;10.942;2024-03-22T01:46:19;15.40;99.90
15554;DHT22;7878;44.632;10.942;2024-03-22T01:48:44;15.30;99.90
15554;DHT22;7878;44.632;10.942;2024-03-22T01:51:10;15.30;99.90
15554;DHT22;7878;44.632;10.942;2024-03-22T01:53:37;15.30;99.90
15554;DHT22;7878;44.632;10.942;2024-03-22T01:56:04;15.20;99.90
15554;DHT22;7878;44.632;10.942;2024-03-22T01:58:29;15.20;99.90
15554;DHT22;7878;44.632;10.942;2024-03-22T02:00:55;15.20;99.90
15554;DHT22;7878;44.632;10.942;2024-03-22T02:03:21;15.30;99.90
15554;DHT22;7878;44.632;10.942;2024-03-22T02:05:47;15.30;99.90
15554;DHT22;7878;44.632;10.942;2024-03-22T02:08:13;15.30;99.90
15554;DHT22;7878;44.632;10.942;2024-03-22T02:10:38;15.30;99.90
15554;DHT22;7878;44.632;10.942;2024-03-22T02:13:04;15.20;99.90
15554;DHT22;7878;44.632;10.942;2024-03-22T02:15:30;15.20;99.90
15554;DHT22;7878;44.632;10.942;2024-03-22T02:17:55;15.20;99.90
15554;DHT22;7878;44.632;10.942;2024-03-22T02:20:21;15.20;99.90
15554;DHT22;7878;44.632;10.942;2024-03-22T02:22:46;15.10;99.90
15554;DHT22;7878;44.632;10.942;2024-03-22T02:25:12;15.20;99.90
15554;DHT22;7878;44.632;10.942;2024-03-22T02:27:38;15.30;99.90
15554;DHT22;7878;44.632;10.942;2024-03-22T02:30:05;15.30;99.90
15554;DHT22;7878;44.632;10.942;2024-03-22T02:32:30;15.20;99.90
15554;DHT22;7878;44.632;10.942;2024-03-22T02:34:56;15.20;99.90
15554;DHT22;7878;44.632;10.942;2024-03-22T02:37:22;15.20;99.90
15554;DHT22;7878;44.632;10.942;2024-03-22T02:39:47;15.10;99.90
15554;DHT22;7878;44.632;10.942;2024-03-22T02:42:13;15.10;99.90
15554;DHT22;7878;44.632;10.942;2024-03-22T02:44:38;15.10;99.90
15554;DHT22;7878;44.632;10.942;2024-03-22T02:47:09;15.00;99.90
15554;DHT22;7878;44.632;10.942;2024-03-22T02:49:35;15.00;99.90
15554;DHT22;7878;44.632;10.942;2024-03-22T02:52:00;14.90;99.90
15554;DHT22;7878;44.632;10.942;2024-03-22T02:54:26;14.90;99.90
15554;DHT22;7878;44.632;10.942;2024-03-22T02:56:51;14.90;99.90
15554;DHT22;7878;44.632;10.942;2024-03-22T02:59:17;15.00;99.90
15554;DHT22;7878;44.632;10.942;2024-03-22T03:01:43;15.00;99.90
15554;DHT22;7878;44.632;10.942;2024-03-22T03:04:08;15.00;99.90
15554;DHT22;7878;44.632;10.942;2024-03-22T03:06:34;15.00;99.90
15554;DHT22;7878;44.632;10.942;2024-03-22T03:09:00;15.00;99.90
15554;DHT22;7878;44.632;10.942;2024-03-22T03:11:26;15.00;99.90
15554;DHT22;7878;44.632;10.942;2024-03-22T03:13:52;15.00;99.90
15554;DHT22;7878;44.632;10.942;2024-03-22T03:16:18;15.00;99.90
15554;DHT22;7878;44.632;10.942;2024-03-22T03:18:43;14.90;99.90
15554;DHT22;7878;44.632;10.942;2024-03-22T03:21:09;14.90;99.90
15554;DHT22;7878;44.632;10.942;2024-03-22T03:23:35;14.80;99.90
15554;DHT22;7878;44.632;10.942;2024-03-22T03:26:00;14.70;99.90
15554;DHT22;7878;44.632;10.942;2024-03-22T03:28:26;14.70;99.90
15554;DHT22;7878;44.632;10.942;2024-03-22T03:30:53;14.60;99.90
15554;DHT22;7878;44.632;10.942;2024-03-22T03:33:18;14.60;99.90
15554;DHT22;7878;44.632;10.942;2024-03-22T03:35:47;14.50;99.90
15554;DHT22;7878;44.632;10.942;2024-03-22T03:38:13;14.50;99.90
15554;DHT22;7878;44.632;10.942;2024-03-22T03:40:39;14.40;99.90
15554;DHT22;7878;44.632;10.942;2024-03-22T03:43:04;14.40;99.90
15554;DHT22;7878;44.632;10.942;2024-03-22T03:45:30;14.30;99.90
15554;DHT22;7878;44.632;10.942;2024-03-22T03:47:56;14.30;99.90
15554;DHT22;7878;44.632;10.942;2024-03-22T03:50:21;14.30;99.90
15554;DHT22;7878;44.632;10.942;2024-03-22T03:52:47;14.30;99.90
15554;DHT22;7878;44.632;10.942;2024-03-22T03:55:14;14.20;99.90
15554;DHT22;7878;44.632;10.942;2024-03-22T03:57:39;14.20;99.90
15554;DHT22;7878;44.632;10.942;2024-03-22T04:00:05;14.20;99.90
15554;DHT22;7878;44.632;10.942;2024-03-22T04:02:31;14.20;99.90
15554;DHT22;7878;44.632;10.942;2024-03-22T04:04:57;14.10;99.90
15554;DHT22;7878;44.632;10.942;2024-03-22T04:07:22;14.00;99.90
15554;DHT22;7878;44.632;10.942;2024-03-22T04:09:48;14.00;99.90
15554;DHT22;7878;44.632;10.942;2024-03-22T04:12:14;14.00;99.90
15554;DHT22;7878;44.632;10.942;2024-03-22T04:14:39;14.00;99.90
15554;DHT22;7878;44.632;10.942;2024-03-22T04:17:05;14.00;99.90
15554;DHT22;7878;44.632;10.942;2024-03-22T04:19:31;14.10;99.90
15554;DHT22;7878;44.632;10.942;2024-03-22T04:21:56;14.00;99.90
15554;DHT22;7878;44.632;10.942;2024-03-22T04:24:22;14.00;99.90
15554;DHT22;7878;44.632;10.942;2024-03-22T04:26:48;14.00;99.90
15554;DHT22;7878;44.632;10.942;2024-03-22T04:29:13;14.00;99.90
15554;DHT22;7878;44.632;10.942;2024-03-22T04:31:39;14.00;99.90
15554;DHT22;7878;44.632;10.942;2024-03-22T04:34:05;14.00;99.90
15554;DHT22;7878;44.632;10.942;2024-03-22T04:36:34;14.00;99.90
15554;DHT22;7878;44.632;10.942;2024-03-22T04:38:59;14.00;99.90
15554;DHT22;7878;44.632;10.942;2024-03-22T04:41:25;14.00;99.90
15554;DHT22;7878;44.632;10.942;2024-03-22T04:43:50;14.00;99.90
15554;DHT22;7878;44.632;10.942;2024-03-22T04:46:16;13.90;99.90
15554;DHT22;7878;44.632;10.942;2024-03-22T04:48:42;13.90;99.90
15554;DHT22;7878;44.632;10.942;2024-03-22T04:51:07;13.90;99.90
15554;DHT22;7878;44.632;10.942;2024-03-22T04:53:33;13.90;99.90
15554;DHT22;7878;44.632;10.942;2024-03-22T04:55:58;13.80;99.90
15554;DHT22;7878;44.632;10.942;2024-03-22T04:58:24;13.90;99.90
15554;DHT22;7878;44.632;10.942;2024-03-22T05:00:55;13.80;99.90
15554;DHT22;7878;44.632;10.942;2024-03-22T05:03:21;13.80;99.90
15554;DHT22;7878;44.632;10.942;2024-03-22T05:05:47;13.80;99.90
15554;DHT22;7878;44.632;10.942;2024-03-22T05:08:13;13.70;99.90
15554;DHT22;7878;44.632;10.942;2024-03-22T05:10:38;13.70;99.90
15554;DHT22;7878;44.632;10.942;2024-03-22T05:13:04;13.70;99.90
15554;DHT22;7878;44.632;10.942;2024-03-22T05:15:29;13.70;99.90
15554;DHT22;7878;44.632;10.942;2024-03-22T05:17:56;13.60;99.90
15554;DHT22;7878;44.632;10.942;2024-03-22T05:20:22;13.60;99.90
15554;DHT22;7878;44.632;10.942;2024-03-22T05:22:48;13.60;99.90
15554;DHT22;7878;44.632;10.942;2024-03-22T05:25:14;13.60;99.90
15554;DHT22;7878;44.632;10.942;2024-03-22T05:27:40;13.60;99.90
15554;DHT22;7878;44.632;10.942;2024-03-22T05:30:08;13.60;99.90
15554;DHT22;7878;44.632;10.942;2024-03-22T05:32:34;13.50;99.90
15554;DHT22;7878;44.632;10.942;2024-03-22T05:34:59;13.50;99.90
15554;DHT22;7878;44.632;10.942;2024-03-22T05:37:25;13.50;99.90
15554;DHT22;7878;44.632;10.942;2024-03-22T05:39:50;13.50;99.90
15554;DHT22;7878;44.632;10.942;2024-03-22T05:42:16;13.50;99.90
15554;DHT22;7878;44.632;10.942;2024-03-22T05:44:46;13.50;99.90
15554;DHT22;7878;44.632;10.942;2024-03-22T05:47:11;13.50;99.90
15554;DHT22;7878;44.632;10.942;2024-03-22T05:49:37;13.50;99.90
15554;DHT22;7878;44.632;10.942;2024-03-22T05:52:03;13.60;99.90
15554;DHT22;7878;44.632;10.942;2024-03-22T05:54:28;13.60;99.90
15554;DHT22;7878;44.632;10.942;2024-03-22T05:56:55;13.60;99.90
15554;DHT22;7878;44.632;10.942;2024-03-22T05:59:20;13.60;99.90
15554;DHT22;7878;44.632;10.942;2024-03-22T06:01:46;13.60;99.90
15554;DHT22;7878;44.632;10.942;2024-03-22T06:04:12;13.50;99.90
15554;DHT22;7878;44.632;10.942;2024-03-22T06:06:37;13.50;99.90
15554;DHT22;7878;44.632;10.942;2024-03-22T06:09:03;13.50;99.90
15554;DHT22;7878;44.632;10.942;2024-03-22T06:11:31;13.60;99.90
15554;DHT22;7878;44.632;10.942;2024-03-22T06:13:56;13.60;99.90
15554;DHT22;7878;44.632;10.942;2024-03-22T06:16:22;13.60;99.90
15554;DHT22;7878;44.632;10.942;2024-03-22T06:18:48;13.60;99.90
15554;DHT22;7878;44.632;10.942;2024-03-22T06:21:13;13.60;99.90
15554;DHT22;7878;44.632;10.942;2024-03-22T06:23:50;13.70;99.90
15554;DHT22;7878;44.632;10.942;2024-03-22T06:26:16;13.70;99.90
15554;DHT22;7878;44.632;10.942;2024-03-22T06:28:42;13.80;99.90
15554;DHT22;7878;44.632;10.942;2024-03-22T06:31:07;13.90;99.90
15554;DHT22;7878;44.632;10.942;2024-03-22T06:33:33;13.90;99.90
15554;DHT22;7878;44.632;10.942;2024-03-22T06:35:59;14.00;99.90
15554;DHT22;7878;44.632;10.942;2024-03-22T06:38:25;14.00;99.90
15554;DHT22;7878;44.632;10.942;2024-03-22T06:40:51;14.00;99.90
15554;DHT22;7878;44.632;10.942;2024-03-22T06:43:17;14.10;99.90
15554;DHT22;7878;44.632;10.942;2024-03-22T06:45:42;14.20;99.90
15554;DHT22;7878;44.632;10.942;2024-03-22T06:48:08;14.20;99.90
15554;DHT22;7878;44.632;10.942;2024-03-22T06:50:33;14.30;99.90
15554;DHT22;7878;44.632;10.942;2024-03-22T06:52:59;14.40;99.90
15554;DHT22;7878;44.632;10.942;2024-03-22T06:55:25;14.40;99.90
15554;DHT22;7878;44.632;10.942;2024-03-22T06:57:50;14.50;99.90
15554;DHT22;7878;44.632;10.942;2024-03-22T07:00:18;14.60;99.90
15554;DHT22;7878;44.632;10.942;2024-03-22T07:02:44;14.80;99.90
15554;DHT22;7878;44.632;10.942;2024-03-22T07:05:10;14.90;99.90
15554;DHT22;7878;44.632;10.942;2024-03-22T07:07:36;15.10;99.90
15554;DHT22;7878;44.632;10.942;2024-03-22T07:10:03;15.40;99.90
15554;DHT22;7878;44.632;10.942;2024-03-22T07:12:29;15.90;99.90
15554;DHT22;7878;44.632;10.942;2024-03-22T07:14:55;16.50;99.90
15554;DHT22;7878;44.632;10.942;2024-03-22T07:17:21;17.20;99.90
15554;DHT22;7878;44.632;10.942;2024-03-22T07:19:51;17.70;99.90
15554;DHT22;7878;44.632;10.942;2024-03-22T07:22:17;18.10;99.90
15554;DHT22;7878;44.632;10.942;2024-03-22T07:24:43;18.40;99.90
15554;DHT22;7878;44.632;10.942;2024-03-22T07:27:09;18.50;99.90
15554;DHT22;7878;44.632;10.942;2024-03-22T07:29:35;18.40;99.90
15554;DHT22;7878;44.632;10.942;2024-03-22T07:32:00;18.40;99.90
15554;DHT22;7878;44.632;10.942;2024-03-22T07:34:26;18.20;99.90
15554;DHT22;7878;44.632;10.942;2024-03-22T07:36:52;18.10;99.90
15554;DHT22;7878;44.632;10.942;2024-03-22T07:39:17;18.10;99.90
15554;DHT22;7878;44.632;10.942;2024-03-22T07:41:43;18.10;99.90
15554;DHT22;7878;44.632;10.942;2024-03-22T07:44:09;18.20;99.90
15554;DHT22;7878;44.632;10.942;2024-03-22T07:46:34;18.30;99.90
15554;DHT22;7878;44.632;10.942;2024-03-22T07:49:00;18.40;99.90
15554;DHT22;7878;44.632;10.942;2024-03-22T07:51:26;18.40;99.90
15554;DHT22;7878;44.632;10.942;2024-03-22T07:53:51;18.30;99.90
15554;DHT22;7878;44.632;10.942;2024-03-22T07:56:17;18.20;99.90
15554;DHT22;7878;44.632;10.942;2024-03-22T07:58:43;18.10;99.90
15554;DHT22;7878;44.632;10.942;2024-03-22T08:01:09;18.00;99.90
15554;DHT22;7878;44.632;10.942;2024-03-22T08:03:35;17.80;99.90
15554;DHT22;7878;44.632;10.942;2024-03-22T08:06:00;17.70;99.90
15554;DHT22;7878;44.632;10.942;2024-03-22T08:08:26;17.70;99.90
15554;DHT22;7878;44.632;10.942;2024-03-22T08:10:51;17.80;99.90
15554;DHT22;7878;44.632;10.942;2024-03-22T08:13:17;18.10;99.90
15554;DHT22;7878;44.632;10.942;2024-03-22T08:15:43;18.30;99.90
15554;DHT22;7878;44.632;10.942;2024-03-22T08:18:11;18.40;99.90
15554;DHT22;7878;44.632;10.942;2024-03-22T08:20:36;18.70;99.90
15554;DHT22;7878;44.632;10.942;2024-03-22T08:23:04;19.00;99.90
15554;DHT22;7878;44.632;10.942;2024-03-22T08:25:30;19.20;99.90
15554;DHT22;7878;44.632;10.942;2024-03-22T08:27:56;19.50;99.90
15554;DHT22;7878;44.632;10.942;2024-03-22T08:30:22;19.60;99.90
15554;DHT22;7878;44.632;10.942;2024-03-22T08:32:48;19.90;99.90
15554;DHT22;7878;44.632;10.942;2024-03-22T08:35:14;20.10;99.90
15554;DHT22;7878;44.632;10.942;2024-03-22T08:37:39;20.50;99.90
15554;DHT22;7878;44.632;10.942;2024-03-22T08:40:05;20.70;99.90
15554;DHT22;7878;44.632;10.942;2024-03-22T08:42:32;21.00;99.90
15554;DHT22;7878;44.632;10.942;2024-03-22T08:44:58;21.50;99.90
15554;DHT22;7878;44.632;10.942;2024-03-22T08:47:23;21.90;99.90
15554;DHT22;7878;44.632;10.942;2024-03-22T08:49:49;22.20;99.90
15554;DHT22;7878;44.632;10.942;2024-03-22T08:52:15;22.60;99.90
15554;DHT22;7878;44.632;10.942;2024-03-22T08:54:40;23.20;99.90
15554;DHT22;7878;44.632;10.942;2024-03-22T08:57:06;24.40;99.90
15554;DHT22;7878;44.632;10.942;2024-03-22T08:59:32;25.20;99.90
15554;DHT22;7878;44.632;10.942;2024-03-22T09:01:58;25.70;99.90
15554;DHT22;7878;44.632;10.942;2024-03-22T09:04:25;26.50;99.90
15554;DHT22;7878;44.632;10.942;2024-03-22T09:06:50;26.90;99.90
15554;DHT22;7878;44.632;10.942;2024-03-22T09:09:16;26.70;95.60
15554;DHT22;7878;44.632;10.942;2024-03-22T09:11:42;26.80;96.20
15554;DHT22;7878;44.632;10.942;2024-03-22T09:14:08;26.70;96.70
15554;DHT22;7878;44.632;10.942;2024-03-22T09:16:34;26.20;96.40
15554;DHT22;7878;44.632;10.942;2024-03-22T09:19:00;25.50;96.20
15554;DHT22;7878;44.632;10.942;2024-03-22T09:21:25;25.10;98.30
15554;DHT22;7878;44.632;10.942;2024-03-22T09:23:51;25.00;98.80
15554;DHT22;7878;44.632;10.942;2024-03-22T09:26:17;24.90;95.80
15554;DHT22;7878;44.632;10.942;2024-03-22T09:28:46;24.70;98.50
15554;DHT22;7878;44.632;10.942;2024-03-22T09:31:11;24.50;95.60
15554;DHT22;7878;44.632;10.942;2024-03-22T09:33:37;24.30;97.50
15554;DHT22;7878;44.632;10.942;2024-03-22T09:36:03;24.30;98.50
15554;DHT22;7878;44.632;10.942;2024-03-22T09:38:28;24.20;97.80
15554;DHT22;7878;44.632;10.942;2024-03-22T09:40:55;23.80;96.60
15554;DHT22;7878;44.632;10.942;2024-03-22T09:43:23;23.50;96.30
15554;DHT22;7878;44.632;10.942;2024-03-22T09:45:52;23.10;96.00
15554;DHT22;7878;44.632;10.942;2024-03-22T09:48:19;23.10;96.50
15554;DHT22;7878;44.632;10.942;2024-03-22T09:50:48;23.00;97.10
15554;DHT22;7878;44.632;10.942;2024-03-22T09:53:21;22.90;96.30
15554;DHT22;7878;44.632;10.942;2024-03-22T09:55:48;23.00;96.10
15554;DHT22;7878;44.632;10.942;2024-03-22T09:58:14;23.00;97.10
15554;DHT22;7878;44.632;10.942;2024-03-22T10:00:42;23.00;97.40
15554;DHT22;7878;44.632;10.942;2024-03-22T10:03:09;23.20;97.80
15554;DHT22;7878;44.632;10.942;2024-03-22T10:05:35;23.30;97.60
15554;DHT22;7878;44.632;10.942;2024-03-22T10:08:01;23.20;96.40
15554;DHT22;7878;44.632;10.942;2024-03-22T10:10:27;23.30;97.20
15554;DHT22;7878;44.632;10.942;2024-03-22T10:12:53;23.50;97.50
15554;DHT22;7878;44.632;10.942;2024-03-22T10:15:19;23.70;97.20
15554;DHT22;7878;44.632;10.942;2024-03-22T10:17:45;24.10;97.60
15554;DHT22;7878;44.632;10.942;2024-03-22T10:20:13;24.40;97.30
15554;DHT22;7878;44.632;10.942;2024-03-22T10:22:43;24.60;96.10
15554;DHT22;7878;44.632;10.942;2024-03-22T10:25:09;24.90;95.90
15554;DHT22;7878;44.632;10.942;2024-03-22T10:27:38;25.30;96.50
15554;DHT22;7878;44.632;10.942;2024-03-22T10:30:08;26.50;95.50
15554;DHT22;7878;44.632;10.942;2024-03-22T10:32:35;28.90;94.00
15554;DHT22;7878;44.632;10.942;2024-03-22T10:35:03;29.70;92.70
15554;DHT22;7878;44.632;10.942;2024-03-22T10:37:32;29.90;91.80
15554;DHT22;7878;44.632;10.942;2024-03-22T10:40:03;30.10;92.40
15554;DHT22;7878;44.632;10.942;2024-03-22T10:42:36;30.00;91.40
15554;DHT22;7878;44.632;10.942;2024-03-22T10:45:10;28.80;90.80
15554;DHT22;7878;44.632;10.942;2024-03-22T10:47:37;28.20;90.00
15554;DHT22;7878;44.632;10.942;2024-03-22T10:50:09;27.80;90.90
15554;DHT22;7878;44.632;10.942;2024-03-22T10:52:48;28.30;85.20
15554;DHT22;7878;44.632;10.942;2024-03-22T10:55:23;30.70;82.50
15554;DHT22;7878;44.632;10.942;2024-03-22T10:57:50;33.00;79.70
15554;DHT22;7878;44.632;10.942;2024-03-22T11:00:17;32.90;80.10
15554;DHT22;7878;44.632;10.942;2024-03-22T11:02:53;33.70;77.00
15554;DHT22;7878;44.632;10.942;2024-03-22T11:05:19;34.80;75.50
15554;DHT22;7878;44.632;10.942;2024-03-22T11:07:45;35.20;77.10
15554;DHT22;7878;44.632;10.942;2024-03-22T11:10:14;34.20;74.60
15554;DHT22;7878;44.632;10.942;2024-03-22T11:12:43;32.40;71.40
15554;DHT22;7878;44.632;10.942;2024-03-22T11:15:09;31.40;74.00
15554;DHT22;7878;44.632;10.942;2024-03-22T11:17:37;31.50;77.70
15554;DHT22;7878;44.632;10.942;2024-03-22T11:20:03;31.90;77.80
15554;DHT22;7878;44.632;10.942;2024-03-22T11:22:29;33.90;75.90
15554;DHT22;7878;44.632;10.942;2024-03-22T11:24:55;34.40;72.80
15554;DHT22;7878;44.632;10.942;2024-03-22T11:27:21;33.60;74.00
15554;DHT22;7878;44.632;10.942;2024-03-22T11:29:46;32.60;74.40
15554;DHT22;7878;44.632;10.942;2024-03-22T11:32:12;33.80;75.30
15554;DHT22;7878;44.632;10.942;2024-03-22T11:34:39;35.20;71.50
15554;DHT22;7878;44.632;10.942;2024-03-22T11:37:06;35.40;69.50
15554;DHT22;7878;44.632;10.942;2024-03-22T11:39:33;34.60;69.40
15554;DHT22;7878;44.632;10.942;2024-03-22T11:42:01;33.20;68.50
15554;DHT22;7878;44.632;10.942;2024-03-22T11:44:27;32.20;72.60
15554;DHT22;7878;44.632;10.942;2024-03-22T11:46:53;31.30;71.90
15554;DHT22;7878;44.632;10.942;2024-03-22T11:49:19;30.90;74.20
15554;DHT22;7878;44.632;10.942;2024-03-22T11:51:45;30.70;73.80
15554;DHT22;7878;44.632;10.942;2024-03-22T11:54:11;30.60;71.20
15554;DHT22;7878;44.632;10.942;2024-03-22T11:56:37;31.00;73.20
15554;DHT22;7878;44.632;10.942;2024-03-22T11:59:02;31.30;70.60
15554;DHT22;7878;44.632;10.942;2024-03-22T12:01:29;30.50;68.70
15554;DHT22;7878;44.632;10.942;2024-03-22T12:03:55;29.40;69.80
15554;DHT22;7878;44.632;10.942;2024-03-22T12:06:21;28.00;68.20
15554;DHT22;7878;44.632;10.942;2024-03-22T12:08:47;27.20;70.40
15554;DHT22;7878;44.632;10.942;2024-03-22T12:11:13;26.70;70.90
15554;DHT22;7878;44.632;10.942;2024-03-22T12:13:39;26.10;70.10
15554;DHT22;7878;44.632;10.942;2024-03-22T12:16:05;25.80;72.10
15554;DHT22;7878;44.632;10.942;2024-03-22T12:18:31;25.50;73.30
15554;DHT22;7878;44.632;10.942;2024-03-22T12:20:57;25.20;71.40
15554;DHT22;7878;44.632;10.942;2024-03-22T12:23:23;25.00;73.50
15554;DHT22;7878;44.632;10.942;2024-03-22T12:25:52;24.90;72.40
15554;DHT22;7878;44.632;10.942;2024-03-22T12:28:20;24.80;70.50
15554;DHT22;7878;44.632;10.942;2024-03-22T12:30:46;24.80;72.70
15554;DHT22;7878;44.632;10.942;2024-03-22T12:33:11;24.70;71.50
15554;DHT22;7878;44.632;10.942;2024-03-22T12:35:39;24.70;70.50
15554;DHT22;7878;44.632;10.942;2024-03-22T12:38:06;24.60;68.80
15554;DHT22;7878;44.632;10.942;2024-03-22T12:40:31;24.50;71.60
15554;DHT22;7878;44.632;10.942;2024-03-22T12:42:58;24.40;72.90
15554;DHT22;7878;44.632;10.942;2024-03-22T12:45:24;24.50;72.80
15554;DHT22;7878;44.632;10.942;2024-03-22T12:47:50;24.40;72.50
15554;DHT22;7878;44.632;10.942;2024-03-22T12:50:15;24.20;72.50
15554;DHT22;7878;44.632;10.942;2024-03-22T12:52:41;24.10;72.70
15554;DHT22;7878;44.632;10.942;2024-03-22T12:55:07;24.10;74.00
15554;DHT22;7878;44.632;10.942;2024-03-22T12:57:33;23.90;73.00
15554;DHT22;7878;44.632;10.942;2024-03-22T12:59:58;23.90;73.70
15554;DHT22;7878;44.632;10.942;2024-03-22T13:02:24;23.80;73.40
15554;DHT22;7878;44.632;10.942;2024-03-22T13:04:52;23.80;73.20
15554;DHT22;7878;44.632;10.942;2024-03-22T13:07:21;23.80;73.80
15554;DHT22;7878;44.632;10.942;2024-03-22T13:09:47;23.80;73.90
15554;DHT22;7878;44.632;10.942;2024-03-22T13:12:13;23.80;73.00
15554;DHT22;7878;44.632;10.942;2024-03-22T13:14:39;23.70;73.30
15554;DHT22;7878;44.632;10.942;2024-03-22T13:17:04;23.70;72.00
15554;DHT22;7878;44.632;10.942;2024-03-22T13:19:30;23.60;73.10
15554;DHT22;7878;44.632;10.942;2024-03-22T13:21:55;23.60;72.70
15554;DHT22;7878;44.632;10.942;2024-03-22T13:24:21;23.40;73.50
15554;DHT22;7878;44.632;10.942;2024-03-22T13:26:47;23.40;72.40
15554;DHT22;7878;44.632;10.942;2024-03-22T13:29:13;23.40;72.20
15554;DHT22;7878;44.632;10.942;2024-03-22T13:31:39;23.50;71.90
15554;DHT22;7878;44.632;10.942;2024-03-22T13:34:05;23.50;72.20
15554;DHT22;7878;44.632;10.942;2024-03-22T13:36:31;23.50;71.40
15554;DHT22;7878;44.632;10.942;2024-03-22T13:38:59;23.50;71.70
15554;DHT22;7878;44.632;10.942;2024-03-22T13:41:24;23.50;72.20
15554;DHT22;7878;44.632;10.942;2024-03-22T13:43:50;23.40;71.90
15554;DHT22;7878;44.632;10.942;2024-03-22T13:46:15;23.40;72.20
15554;DHT22;7878;44.632;10.942;2024-03-22T13:48:43;23.30;72.10
15554;DHT22;7878;44.632;10.942;2024-03-22T13:51:08;23.30;72.90
15554;DHT22;7878;44.632;10.942;2024-03-22T13:53:35;23.30;72.40
15554;DHT22;7878;44.632;10.942;2024-03-22T13:56:02;23.30;73.60
15554;DHT22;7878;44.632;10.942;2024-03-22T13:58:27;23.10;70.80
15554;DHT22;7878;44.632;10.942;2024-03-22T14:00:53;23.10;72.30
15554;DHT22;7878;44.632;10.942;2024-03-22T14:03:19;23.00;71.80
15554;DHT22;7878;44.632;10.942;2024-03-22T14:05:45;23.00;71.30
15554;DHT22;7878;44.632;10.942;2024-03-22T14:08:11;23.00;70.00
15554;DHT22;7878;44.632;10.942;2024-03-22T14:10:37;23.00;72.00
15554;DHT22;7878;44.632;10.942;2024-03-22T14:13:03;23.00;71.80
15554;DHT22;7878;44.632;10.942;2024-03-22T14:15:29;23.00;71.40
15554;DHT22;7878;44.632;10.942;2024-03-22T14:17:58;23.00;71.60
15554;DHT22;7878;44.632;10.942;2024-03-22T14:20:24;22.90;71.90
15554;DHT22;7878;44.632;10.942;2024-03-22T14:22:50;23.00;70.60
15554;DHT22;7878;44.632;10.942;2024-03-22T14:25:16;22.90;70.20
15554;DHT22;7878;44.632;10.942;2024-03-22T14:27:42;22.90;71.00
15554;DHT22;7878;44.632;10.942;2024-03-22T14:30:12;23.00;69.30
15554;DHT22;7878;44.632;10.942;2024-03-22T14:32:40;22.90;68.70
15554;DHT22;7878;44.632;10.942;2024-03-22T14:35:06;22.90;69.40
15554;DHT22;7878;44.632;10.942;2024-03-22T14:37:32;22.80;69.60
15554;DHT22;7878;44.632;10.942;2024-03-22T14:39:58;22.70;66.40
15554;DHT22;7878;44.632;10.942;2024-03-22T14:42:24;22.60;68.90
15554;DHT22;7878;44.632;10.942;2024-03-22T14:44:50;22.50;68.30
15554;DHT22;7878;44.632;10.942;2024-03-22T14:47:15;22.40;67.10
15554;DHT22;7878;44.632;10.942;2024-03-22T14:49:41;22.50;68.80
15554;DHT22;7878;44.632;10.942;2024-03-22T14:52:08;22.50;67.90
15554;DHT22;7878;44.632;10.942;2024-03-22T14:54:34;22.50;69.00
15554;DHT22;7878;44.632;10.942;2024-03-22T14:57:00;22.60;68.90
15554;DHT22;7878;44.632;10.942;2024-03-22T14:59:29;22.40;68.20
15554;DHT22;7878;44.632;10.942;2024-03-22T15:01:55;22.40;68.10
15554;DHT22;7878;44.632;10.942;2024-03-22T15:04:21;22.40;68.20
15554;DHT22;7878;44.632;10.942;2024-03-22T15:06:47;22.40;71.20
15554;DHT22;7878;44.632;10.942;2024-03-22T15:09:17;22.40;71.40
15554;DHT22;7878;44.632;10.942;2024-03-22T15:11:44;22.40;70.60
15554;DHT22;7878;44.632;10.942;2024-03-22T15:14:10;22.40;69.60
15554;DHT22;7878;44.632;10.942;2024-03-22T15:16:36;22.30;67.20
15554;DHT22;7878;44.632;10.942;2024-03-22T15:19:02;22.20;69.90
15554;DHT22;7878;44.632;10.942;2024-03-22T15:21:28;22.30;70.70
15554;DHT22;7878;44.632;10.942;2024-03-22T15:23:54;22.30;70.80